Flight Track Log - Related Links

Times and Time Zones

All times are in EDT time to prevent confusion due to time zone crossing. See the THU880 flight status page for this flight to view local times or setup timezone preferences in your user account.

Time Position Orientation Groundspeed Altitude Reporting Facility
EDT Latitude Longitude Course Direction KTS MPH feet Rate Location/Type
Fri 02:02:09 PM 45.3000 -75.6333 314° West 120 138 900  Level Montreal Center
Fri 02:03:00 PM 45.7382 -75.9138 339° North  Level FlightAware Approximate
Fri 02:03:09 PM 45.3333 -75.5833 47° Northeast 160 184 2,900  Level Montreal Center
Fri 02:04:00 PM 45.8013 -75.9488 339° North  Level FlightAware Approximate
Fri 02:04:09 PM 45.3500 -75.5333 65° Northeast 160 184 4,800  Level Montreal Center
Fri 02:05:00 PM 45.8640 -75.9850 337° Northwest  Level FlightAware Approximate
Fri 02:05:09 PM 45.4000 -75.5667 335° Northwest 170 196 6,500  Level Montreal Center
Fri 02:06:00 PM 45.9228 -76.0289 306° West  Level FlightAware Approximate
Fri 02:06:09 PM 45.4333 -75.5833 341° North 190 219 8,000  Level Montreal Center
Fri 02:07:00 PM 45.9646 -76.1052 314° West  Level FlightAware Approximate
Fri 02:07:09 PM 45.5000 -75.6333 332° Northwest 200 230 9,500  Level Montreal Center
Fri 02:08:09 PM 45.5500 -75.6833 325° Northwest 210 242 11,000 1,500 Climbing Montreal Center
Fri 02:09:09 PM 45.6000 -75.7333 325° Northwest 210 242 12,500 1,400 Climbing Montreal Center
Fri 02:10:09 PM 45.6500 -75.7833 325° Northwest 220 253 13,800 1,350 Climbing Montreal Center
Fri 02:11:09 PM 45.7167 -75.8167 341° North 220 253 15,200 1,300 Climbing Montreal Center
Fri 02:12:09 PM 45.7667 -75.8667 325° Northwest 220 253 16,400 1,250 Climbing Montreal Center
Fri 02:13:09 PM 45.8167 -75.9167 325° Northwest 220 253 17,700 1,100 Climbing Montreal Center
Fri 02:14:09 PM 45.8667 -75.9667 325° Northwest 220 253 18,600 950 Climbing Montreal Center
Fri 02:15:09 PM 45.9167 -76.0167 325° Northwest 220 253 19,600 700 Climbing Montreal Center
Fri 02:16:09 PM 45.9667 -76.0833 317° Northwest 240 276 20,000 200 Climbing Montreal Center
Fri 02:17:09 PM 46.0000 -76.1667 300° West 270 311 20,000  Level Montreal Center
Fri 02:18:09 PM 46.0500 -76.2500 311° West 270 311 20,000  Level Montreal Center
Fri 02:19:09 PM 46.1000 -76.3333 311° West 270 311 20,000  Level Montreal Center
Fri 02:20:09 PM 46.1500 -76.4333 306° West 280 322 20,000  Level Montreal Center
Fri 02:21:09 PM 46.2000 -76.5167 311° West 290 334 20,000  Level Montreal Center
Fri 02:22:09 PM 46.2500 -76.6000 311° West 280 322 20,000  Level Montreal Center
Fri 02:23:09 PM 46.3000 -76.7000 306° West 280 322 20,000  Level Montreal Center
Fri 02:24:09 PM 46.3500 -76.7667 317° Northwest 280 322 20,000  Level Montreal Center
Fri 02:25:09 PM 46.4000 -76.8667 306° West 280 322 20,000  Level Montreal Center
Fri 02:26:09 PM 46.4500 -76.9667 306° West 280 322 20,000  Level Montreal Center
Fri 02:27:09 PM 46.5000 -77.0333 317° Northwest 280 322 20,000  Level Montreal Center
Fri 02:28:09 PM 46.5500 -77.1333 306° West 280 322 20,000  Level Montreal Center
Fri 02:29:09 PM 46.5833 -77.2333 296° West 280 322 20,000  Level Montreal Center
Fri 02:30:09 PM 46.6167 -77.3167 300° West 280 322 20,000  Level Montreal Center
Fri 02:31:09 PM 46.6833 -77.4167 314° West 280 322 20,000  Level Montreal Center
Fri 02:32:09 PM 46.7167 -77.4833 306° West 280 322 20,000  Level Montreal Center
Fri 02:33:09 PM 46.7667 -77.5833 306° West 280 322 20,000  Level Montreal Center
Fri 02:34:09 PM 46.8167 -77.6833 306° West 280 322 20,000  Level Montreal Center
Fri 02:35:09 PM 46.8667 -77.7667 311° West 280 322 20,000  Level Montreal Center
Fri 02:36:09 PM 46.9167 -77.8667 306° West 280 322 20,000  Level Montreal Center
Fri 02:37:09 PM 46.9667 -77.9333 318° Northwest 280 322 20,000  Level Montreal Center
Fri 02:38:09 PM 47.0167 -78.0333 306° West 280 322 20,000  Level Montreal Center
Fri 02:39:09 PM 47.0667 -78.1333 306° West 280 322 20,000  Level Montreal Center
Fri 02:40:09 PM 47.1167 -78.2167 311° West 280 322 20,000  Level Montreal Center
Fri 02:41:09 PM 47.1667 -78.3167 306° West 280 322 20,000  Level Montreal Center
Fri 02:42:09 PM 47.2167 -78.4167 306° West 280 322 20,000  Level Montreal Center
Fri 02:43:09 PM 47.2500 -78.4833 306° West 280 322 20,000  Level Montreal Center
Fri 02:44:09 PM 47.3000 -78.5833 306° West 280 322 20,000  Level Montreal Center
Fri 02:45:09 PM 47.3500 -78.6667 312° West 280 322 20,000  Level Montreal Center
Fri 02:46:09 PM 47.3833 -78.7667 296° West 280 322 20,000  Level Montreal Center
Fri 02:47:09 PM 47.4333 -78.8500 312° West 280 322 20,000  Level Montreal Center
Fri 02:48:09 PM 47.4833 -78.9500 307° West 280 322 20,000  Level Montreal Center
Fri 02:49:09 PM 47.5333 -79.0500 307° West 280 322 20,000  Level Montreal Center
Fri 02:50:09 PM 47.5833 -79.1333 312° West 280 322 20,000  Level Montreal Center
Fri 02:51:09 PM 47.6167 -79.2333 296° West 280 322 20,000  Level Montreal Center
Fri 02:52:09 PM 47.6667 -79.3333 307° West 280 322 20,000  Level Montreal Center
Fri 02:53:09 PM 47.7167 -79.4167 312° West 290 334 20,000  Level Montreal Center
Fri 02:54:09 PM 47.7667 -79.5167 307° West 290 334 20,000  Level Montreal Center
Fri 02:55:09 PM 47.8167 -79.6167 307° West 280 322 20,000  Level Montreal Center
Fri 02:56:09 PM 47.8667 -79.7167 307° West 290 334 20,000  Level Montreal Center
Fri 02:57:09 PM 47.9167 -79.8000 312° West 280 322 20,000  Level Montreal Center
Fri 02:58:09 PM 47.9500 -79.9000 296° West 290 334 20,000  Level Montreal Center
Fri 02:59:09 PM 48.0000 -80.0167 303° West 290 334 20,000  Level Montreal Center
Fri 03:00:09 PM 48.0500 -80.0833 318° Northwest 290 334 20,000  Level Montreal Center
Fri 03:01:09 PM 48.1000 -80.2000 303° West 290 334 20,000  Level Montreal Center
Fri 03:02:09 PM 48.1667 -80.3000 315° West 290 334 20,000  Level Montreal Center
Fri 03:03:09 PM 48.1833 -80.3833 287° West 290 334 20,000  Level Montreal Center
Fri 03:04:09 PM 48.2500 -80.4833 315° West 290 334 20,000  Level Montreal Center
Fri 03:05:09 PM 48.3000 -80.5833 307° West 290 334 20,000  Level Montreal Center
Fri 03:06:09 PM 48.3500 -80.7000 303° West 290 334 20,000  Level Montreal Center
Fri 03:07:09 PM 48.4000 -80.7833 312° West 290 334 20,000  Level Montreal Center
Fri 03:08:09 PM 48.4333 -80.8833 297° West 290 334 20,000  Level Montreal Center
Fri 03:09:09 PM 48.4833 -80.9833 307° West 290 334 20,000  Level Montreal Center
Fri 03:10:09 PM 48.5333 -81.1000 303° West 290 334 20,000  Level Montreal Center
Fri 03:11:09 PM 48.5833 -81.1833 312° West 290 334 20,000  Level Montreal Center
Fri 03:12:09 PM 48.6167 -81.2833 297° West 280 322 20,000  Level Montreal Center
Fri 03:13:09 PM 48.6667 -81.3833 307° West 280 322 20,000  Level Montreal Center
Fri 03:14:09 PM 48.7167 -81.4667 312° West 280 322 20,000  Level Montreal Center
Fri 03:15:09 PM 48.7667 -81.5833 303° West 280 322 20,000  Level Montreal Center
Fri 03:16:09 PM 48.8000 -81.6833 297° West 280 322 20,000  Level Montreal Center
Fri 03:17:09 PM 48.8500 -81.7667 312° West 280 322 20,000  Level Montreal Center
Fri 03:18:09 PM 48.9000 -81.8833 303° West 280 322 20,000  Level Montreal Center
Fri 03:19:09 PM 48.9333 -81.9667 301° West 280 322 20,000  Level Montreal Center
Fri 03:20:09 PM 48.9833 -82.0667 307° West 280 322 20,000  Level Montreal Center
Fri 03:21:09 PM 49.0333 -82.1833 303° West 280 322 20,000  Level Montreal Center
Fri 03:22:09 PM 49.0667 -82.2500 307° West 280 322 20,000  Level Montreal Center
Fri 03:23:09 PM 49.1167 -82.3667 303° West 280 322 20,000  Level Montreal Center
Fri 03:24:09 PM 49.1500 -82.4500 301° West 280 322 20,000 -500 Level Montreal Center
Fri 03:25:09 PM 49.2167 -82.5667 311° West 290 334 19,000 -1,350 Descending Montreal Center
Fri 03:26:09 PM 49.2500 -82.6667 297° West 300 345 17,300 -1,900 Descending Montreal Center
Fri 03:27:09 PM 49.3000 -82.7833 303° West 300 345 15,200 -1,900 Descending Montreal Center
Fri 03:28:09 PM 49.3500 -82.8667 313° West 290 334 13,500 -1,650 Descending Montreal Center
Fri 03:29:09 PM 49.3833 -82.9667 297° West 290 334 11,900 -1,600 Descending Montreal Center
Fri 03:30:09 PM 49.4333 -83.0833 303° West 280 322 10,300 -1,650 Descending Montreal Center
Fri 03:31:09 PM 49.4833 -83.1667 313° West 270 311 8,600 -1,700 Descending Montreal Center
Fri 03:32:09 PM 49.5167 -83.2833 294° West 260 299 6,900 -850 Descending Montreal Center
Fri 03:33:09 PM 49.5500 -83.3667 302° West 250 288 6,900  Level Montreal Center
Fri 03:34:09 PM 49.6000 -83.4500 313° West 250 288 6,900 -100 Level Montreal Center
Fri 03:35:09 PM 49.6000 -83.5333 270° West 220 253 6,700 -700 Descending Montreal Center
Fri 03:36:09 PM 49.6333 -83.5833 316° Northwest 150 173 5,500 -1,500 Descending Montreal Center
Fri 03:37:09 PM 49.6500 -83.6667 287° West 140 161 3,700 -1,650 Descending Montreal Center
Fri 03:38:09 PM 49.6667 -83.7167 297° West 150 173 2,200 -1,350 Descending Montreal Center
Fri 03:39:09 PM 49.7000 -83.7167 360° North 130 150 1,000 -1,200 Descending Montreal Center
Fri 03:41:00 PM 49.7000 -83.6833 291° West  Level FlightAware Approximate
Fri 03:48:00 PM 49.7142 -83.6861 291° West  Level Estimated
Fri 03:49:00 PM 49.7142 -83.6861 291° West  Level Estimated
Fri 03:50:00 PM 49.7142 -83.6861 291° West  Level Estimated
Fri 03:51:00 PM 49.7142 -83.6861 291° West  Level Estimated
Fri 03:52:00 PM 49.7142 -83.6861 291° West  Level Estimated

Login

Don't have an account? Register now (free) for customized features, flight alerts, and more!